Time;durP1;ratioP1;P1;durP2;ratioP2;P2;SDS_P1;SDS_P2;PMS_P1;PMS_P2;Temp;Humidity;BMP_temperature;BMP_pressure;BME280_temperature;BME280_humidity;BME280_pressure;Samples;Min_cycle;Max_cycle;Signal;HPM_P1;HPM_P2
2021/07/17 00:01:32;;;;;;;;;;;;;;;;;;5071877;28;20283;-62
2021/07/17 00:03:58;;;;;;;;;;;;;;;;;;5073161;28;19921;-62
2021/07/17 00:06:24;;;;;;;;;;;;;;;;;;5078903;28;19908;-62
2021/07/17 00:08:50;;;;;;;;;;;;;;;;;;5073423;28;20295;-62
2021/07/17 00:11:16;;;;;;;;;;;;;;;;;;5071523;28;19912;-62
2021/07/17 00:13:42;;;;;;;;;;;;;;;;;;5071279;28;19921;-62
2021/07/17 00:16:08;;;;;;;;;;;;;;;;;;5074469;28;20383;-62
2021/07/17 00:18:34;;;;;;;;;;;;;;;;;;5070898;28;20003;-62
2021/07/17 00:21:00;;;;;;;;;;;;;;;;;;5071161;28;19927;-62
2021/07/17 00:23:26;;;;;;;;;;;;;;;;;;5071151;28;19919;-62
2021/07/17 00:25:57;;;;;;;;;;;;;;;;;;5071336;28;20290;-62
2021/07/17 00:28:23;;;;;;;;;;;;;;;;;;5085466;28;19959;-62
2021/07/17 00:30:49;;;;;;;;;;;;;;;;;;5073464;28;20280;-62
2021/07/17 00:33:15;;;;;;;;;;;;;;;;;;5072188;28;20011;-62
2021/07/17 00:35:41;;;;;;;;;;;;;;;;;;5070863;28;19920;-62
2021/07/17 00:38:07;;;;;;;;;;;;;;;;;;5077860;28;20372;-62
2021/07/17 00:40:32;;;;;;;;;;;;;;;;;;5070402;28;19913;-62
2021/07/17 00:42:58;;;;;;;;;;;;;;;;;;5081696;28;19920;-62
2021/07/17 00:45:24;;;;;;;;;;;;;;;;;;5072939;28;19908;-62
2021/07/17 00:47:50;;;;;;;;;;;;;;;;;;5073296;28;19998;-62
2021/07/17 00:50:16;;;;;;;;;;;;;;;;;;5070535;28;19940;-62
2021/07/17 00:52:42;;;;;;;;;;;;;;;;;;5069748;28;20418;-62
2021/07/17 00:55:08;;;;;;;;;;;;;;;;;;5070852;28;20404;-62
2021/07/17 00:57:34;;;;;;;;;;;;;;;;;;5088670;28;19912;-62
2021/07/17 01:00:00;;;;;;;;;;;;;;;;;;5071106;28;19913;-62
2021/07/17 01:02:25;;;;;;;;;;;;;;;;;;5070823;28;19912;-62
2021/07/17 01:04:51;;;;;;;;;;;;;;;;;;5070296;28;19920;-62
2021/07/17 01:07:17;;;;;;;;;;;;;;;;;;5077647;28;20400;-62
2021/07/17 01:09:43;;;;;;;;;;;;;;;;;;5072955;28;19915;-62
2021/07/17 01:12:09;;;;;;;;;;;;;;;;;;5071355;28;20340;-62
2021/07/17 01:14:35;;;;;;;;;;;;;;;;;;5070254;28;20019;-62
2021/07/17 01:17:01;;;;;;;;;;;;;;;;;;5073245;28;19917;-62
2021/07/17 01:19:27;;;;;;;;;;;;;;;;;;5070390;28;19963;-62
2021/07/17 01:21:52;;;;;;;;;;;;;;;;;;5072507;28;19909;-62
2021/07/17 01:24:18;;;;;;;;;;;;;;;;;;5071293;28;19908;-62
2021/07/17 01:26:44;;;;;;;;;;;;;;;;;;5078088;28;19985;-62
2021/07/17 01:29:10;;;;;;;;;;;;;;;;;;5077890;28;20430;-62
2021/07/17 01:31:36;;;;;;;;;;;;;;;;;;5070253;28;19913;-62
2021/07/17 01:34:02;;;;;;;;;;;;;;;;;;5070114;28;19929;-62
2021/07/17 01:36:28;;;;;;;;;;;;;;;;;;5072691;28;20382;-62
2021/07/17 01:38:54;;;;;;;;;;;;;;;;;;5070273;28;19920;-62
2021/07/17 01:41:19;;;;;;;;;;;;;;;;;;5069865;28;19974;-62
2021/07/17 01:43:45;;;;;;;;;;;;;;;;;;5069767;28;20284;-62
2021/07/17 01:46:11;;;;;;;;;;;;;;;;;;5072601;28;19963;-62
2021/07/17 01:48:37;;;;;;;;;;;;;;;;;;5071726;28;19908;-62
2021/07/17 01:51:03;;;;;;;;;;;;;;;;;;5069633;28;19912;-62
2021/07/17 01:53:29;;;;;;;;;;;;;;;;;;5069506;28;19925;-62
2021/07/17 01:55:55;;;;;;;;;;;;;;;;;;5069312;28;20357;-62
2021/07/17 01:58:21;;;;;;;;;;;;;;;;;;5069332;28;19917;-62
2021/07/17 02:00:47;;;;;;;;;;;;;;;;;;5072099;28;20003;-62
2021/07/17 02:03:13;;;;;;;;;;;;;;;;;;5070068;28;19908;-62
2021/07/17 02:05:38;;;;;;;;;;;;;;;;;;5069433;28;19913;-62
2021/07/17 02:08:04;;;;;;;;;;;;;;;;;;5076177;28;19916;-62
2021/07/17 02:10:30;;;;;;;;;;;;;;;;;;5069682;28;19912;-62
2021/07/17 02:12:56;;;;;;;;;;;;;;;;;;5070798;28;19943;-62
2021/07/17 02:15:22;;;;;;;;;;;;;;;;;;5071060;28;19924;-62
2021/07/17 02:17:48;;;;;;;;;;;;;;;;;;5072066;28;19948;-62
2021/07/17 02:20:14;;;;;;;;;;;;;;;;;;5069382;28;19912;-62
2021/07/17 02:22:40;;;;;;;;;;;;;;;;;;5068499;28;20283;-62
2021/07/17 02:25:06;;;;;;;;;;;;;;;;;;5069911;28;19935;-62
2021/07/17 02:27:32;;;;;;;;;;;;;;;;;;5086920;28;19908;-62
2021/07/17 02:29:58;;;;;;;;;;;;;;;;;;5069375;28;19955;-62
2021/07/17 02:32:24;;;;;;;;;;;;;;;;;;5068811;28;20006;-62
2021/07/17 02:34:50;;;;;;;;;;;;;;;;;;5069146;28;19924;-62
2021/07/17 02:37:15;;;;;;;;;;;;;;;;;;5075451;28;19975;-62
2021/07/17 02:39:41;;;;;;;;;;;;;;;;;;5057627;28;19912;-62
2021/07/17 02:42:07;;;;;;;;;;;;;;;;;;5069302;28;20241;-62
2021/07/17 02:44:33;;;;;;;;;;;;;;;;;;5068905;28;19948;-62
2021/07/17 02:46:59;;;;;;;;;;;;;;;;;;5071074;28;19912;-62
2021/07/17 02:49:25;;;;;;;;;;;;;;;;;;5068965;28;19939;-62
2021/07/17 02:51:51;;;;;;;;;;;;;;;;;;5070909;28;19954;-62
2021/07/17 02:54:17;;;;;;;;;;;;;;;;;;5069894;28;19960;-62
2021/07/17 02:56:43;;;;;;;;;;;;;;;;;;5075548;28;19912;-62
2021/07/17 02:59:09;;;;;;;;;;;;;;;;;;5076350;28;19919;-62
2021/07/17 03:01:35;;;;;;;;;;;;;;;;;;5068417;28;20026;-62
2021/07/17 03:04:01;;;;;;;;;;;;;;;;;;5069785;28;20249;-62
2021/07/17 03:06:26;;;;;;;;;;;;;;;;;;5075641;28;19912;-62
2021/07/17 03:08:52;;;;;;;;;;;;;;;;;;5069890;28;20264;-61
2021/07/17 03:11:18;;;;;;;;;;;;;;;;;;5074646;28;19919;-62
2021/07/17 03:13:44;;;;;;;;;;;;;;;;;;5068099;28;19920;-62
2021/07/17 03:16:10;;;;;;;;;;;;;;;;;;5070336;28;19940;-62
2021/07/17 03:18:36;;;;;;;;;;;;;;;;;;5071600;28;19909;-62
2021/07/17 03:21:02;;;;;;;;;;;;;;;;;;5064726;28;19912;-62
2021/07/17 03:23:28;;;;;;;;;;;;;;;;;;5073189;28;20268;-62
2021/07/17 03:25:54;;;;;;;;;;;;;;;;;;5068561;28;19912;-62
2021/07/17 03:28:19;;;;;;;;;;;;;;;;;;5082538;28;19920;-62
2021/07/17 03:30:45;;;;;;;;;;;;;;;;;;5070588;28;19909;-62
2021/07/17 03:33:11;;;;;;;;;;;;;;;;;;5070333;28;19920;-62
2021/07/17 03:35:37;;;;;;;;;;;;;;;;;;5067755;28;19913;-62
2021/07/17 03:38:03;;;;;;;;;;;;;;;;;;5074501;28;19913;-62
2021/07/17 03:40:29;;;;;;;;;;;;;;;;;;5067965;28;20012;-62
2021/07/17 03:42:55;;;;;;;;;;;;;;;;;;5069895;28;19999;-62
2021/07/17 03:45:20;;;;;;;;;;;;;;;;;;5069216;28;20067;-62
2021/07/17 03:47:46;;;;;;;;;;;;;;;;;;5070541;28;19916;-62
2021/07/17 03:50:12;;;;;;;;;;;;;;;;;;5068168;28;19969;-62
2021/07/17 03:52:38;;;;;;;;;;;;;;;;;;5068063;28;20276;-62
2021/07/17 03:55:04;;;;;;;;;;;;;;;;;;5068451;28;19920;-62
2021/07/17 03:57:30;;;;;;;;;;;;;;;;;;5084988;28;19908;-62
2021/07/17 03:59:56;;;;;;;;;;;;;;;;;;5068589;28;20021;-62
2021/07/17 04:02:22;;;;;;;;;;;;;;;;;;5067877;28;19963;-62
2021/07/17 04:04:49;;;;;;;;;;;;;;;;;;5067188;28;19920;-61
2021/07/17 04:07:15;;;;;;;;;;;;;;;;;;5060523;28;20352;-62
2021/07/17 04:09:40;;;;;;;;;;;;;;;;;;5071072;28;19954;-62
2021/07/17 04:12:06;;;;;;;;;;;;;;;;;;5068309;28;19970;-62
2021/07/17 04:14:32;;;;;;;;;;;;;;;;;;5067326;28;19924;-62
2021/07/17 04:16:58;;;;;;;;;;;;;;;;;;5069913;28;20365;-62
2021/07/17 04:19:24;;;;;;;;;;;;;;;;;;5067865;28;19978;-62
2021/07/17 04:21:50;;;;;;;;;;;;;;;;;;5070096;28;19915;-63
2021/07/17 04:24:16;;;;;;;;;;;;;;;;;;5068655;28;19912;-62
2021/07/17 04:26:42;;;;;;;;;;;;;;;;;;5074669;28;19919;-61
2021/07/17 04:29:08;;;;;;;;;;;;;;;;;;5078530;28;20469;-62
2021/07/17 04:31:33;;;;;;;;;;;;;;;;;;5071277;28;19908;-62
2021/07/17 04:33:59;;;;;;;;;;;;;;;;;;5072306;28;19935;-62
2021/07/17 04:36:25;;;;;;;;;;;;;;;;;;5078762;28;19916;-61
2021/07/17 04:38:51;;;;;;;;;;;;;;;;;;5072475;28;19916;-61
2021/07/17 04:41:17;;;;;;;;;;;;;;;;;;5071251;28;19912;-61
2021/07/17 04:43:43;;;;;;;;;;;;;;;;;;5070220;28;20376;-61
2021/07/17 04:46:09;;;;;;;;;;;;;;;;;;5073973;28;20410;-61
2021/07/17 04:48:35;;;;;;;;;;;;;;;;;;5074296;28;19958;-62
2021/07/17 04:51:00;;;;;;;;;;;;;;;;;;5071039;28;20335;-63
2021/07/17 04:53:26;;;;;;;;;;;;;;;;;;5070819;28;20337;-62
2021/07/17 04:55:52;;;;;;;;;;;;;;;;;;5071278;28;19909;-61
2021/07/17 04:58:18;;;;;;;;;;;;;;;;;;5085164;28;19912;-61
2021/07/17 05:00:44;;;;;;;;;;;;;;;;;;5073613;28;19908;-62
2021/07/17 05:03:10;;;;;;;;;;;;;;;;;;5057745;28;19913;-62
2021/07/17 05:05:36;;;;;;;;;;;;;;;;;;5070189;28;20295;-61
2021/07/17 05:08:02;;;;;;;;;;;;;;;;;;5077655;28;19966;-61
2021/07/17 05:10:27;;;;;;;;;;;;;;;;;;5070522;28;20260;-62
2021/07/17 05:12:53;;;;;;;;;;;;;;;;;;5082193;28;19920;-61
2021/07/17 05:15:19;;;;;;;;;;;;;;;;;;5071790;28;19951;-61
2021/07/17 05:17:45;;;;;;;;;;;;;;;;;;5072883;28;19908;-61
2021/07/17 05:20:11;;;;;;;;;;;;;;;;;;5057280;28;19917;-61
2021/07/17 05:22:37;;;;;;;;;;;;;;;;;;5070642;28;19954;-61
2021/07/17 05:25:03;;;;;;;;;;;;;;;;;;5071357;28;19924;-61
2021/07/17 05:27:29;;;;;;;;;;;;;;;;;;5086480;28;20002;-61
2021/07/17 05:29:55;;;;;;;;;;;;;;;;;;5071168;28;19962;-61
2021/07/17 05:32:20;;;;;;;;;;;;;;;;;;5070191;28;19912;-61
2021/07/17 05:34:46;;;;;;;;;;;;;;;;;;5069881;28;19920;-62
2021/07/17 05:37:12;;;;;;;;;;;;;;;;;;5076912;28;19913;-61
2021/07/17 05:39:38;;;;;;;;;;;;;;;;;;5073122;28;20360;-61
2021/07/17 05:42:04;;;;;;;;;;;;;;;;;;5070031;28;19958;-61
2021/07/17 05:44:30;;;;;;;;;;;;;;;;;;5070130;28;19919;-62
2021/07/17 05:46:56;;;;;;;;;;;;;;;;;;5072339;28;19916;-61
2021/07/17 05:49:22;;;;;;;;;;;;;;;;;;5069903;28;19958;-62
2021/07/17 05:51:48;;;;;;;;;;;;;;;;;;5072641;28;19967;-61
2021/07/17 05:54:14;;;;;;;;;;;;;;;;;;5073197;28;20388;-63
2021/07/17 05:56:40;;;;;;;;;;;;;;;;;;5056933;28;19908;-62
2021/07/17 05:59:05;;;;;;;;;;;;;;;;;;5070092;28;19935;-62
2021/07/17 06:01:31;;;;;;;;;;;;;;;;;;5070331;28;19954;-62
2021/07/17 06:03:57;;;;;;;;;;;;;;;;;;5071527;28;19912;-62
2021/07/17 06:06:23;;;;;;;;;;;;;;;;;;5072275;28;20371;-62
2021/07/17 06:08:49;;;;;;;;;;;;;;;;;;5069306;28;19956;-62
2021/07/17 06:11:15;;;;;;;;;;;;;;;;;;5069543;28;20364;-62
2021/07/17 06:13:41;;;;;;;;;;;;;;;;;;5070510;28;19962;-62
2021/07/17 06:16:07;;;;;;;;;;;;;;;;;;5070148;28;19967;-62
2021/07/17 06:18:32;;;;;;;;;;;;;;;;;;5073064;28;19965;-62
2021/07/17 06:20:59;;;;;;;;;;;;;;;;;;5069839;28;20050;-62
2021/07/17 06:23:25;;;;;;;;;;;;;;;;;;5069724;28;19912;-62
2021/07/17 06:25:50;;;;;;;;;;;;;;;;;;5069213;28;20292;-62
2021/07/17 06:28:16;;;;;;;;;;;;;;;;;;5069827;28;19990;-62
2021/07/17 06:30:42;;;;;;;;;;;;;;;;;;5072278;28;20364;-62
2021/07/17 06:33:08;;;;;;;;;;;;;;;;;;5071824;28;19913;-62
2021/07/17 06:35:34;;;;;;;;;;;;;;;;;;5069329;28;19917;-61
2021/07/17 06:38:00;;;;;;;;;;;;;;;;;;5069708;28;20155;-61
2021/07/17 06:40:26;;;;;;;;;;;;;;;;;;5069772;28;20050;-61
2021/07/17 06:42:52;;;;;;;;;;;;;;;;;;5071938;28;20375;-62
2021/07/17 06:45:18;;;;;;;;;;;;;;;;;;5069969;28;19908;-62
2021/07/17 06:47:43;;;;;;;;;;;;;;;;;;5069334;28;19991;-62
2021/07/17 06:50:09;;;;;;;;;;;;;;;;;;5068952;28;19912;-62
2021/07/17 06:52:35;;;;;;;;;;;;;;;;;;5068790;28;19912;-60
2021/07/17 06:55:01;;;;;;;;;;;;;;;;;;5070199;28;20390;-64
2021/07/17 06:57:27;;;;;;;;;;;;;;;;;;5071409;28;19916;-62
2021/07/17 06:59:53;;;;;;;;;;;;;;;;;;5069067;28;19919;-61
2021/07/17 07:02:19;;;;;;;;;;;;;;;;;;5065743;28;19916;-61
2021/07/17 07:04:45;;;;;;;;;;;;;;;;;;5062055;28;19920;-62
2021/07/17 07:07:10;;;;;;;;;;;;;;;;;;5067258;28;19917;-60
2021/07/17 07:09:36;;;;;;;;;;;;;;;;;;5078424;28;19908;-60
2021/07/17 07:12:02;;;;;;;;;;;;;;;;;;5057767;28;19928;-62
2021/07/17 07:14:28;;;;;;;;;;;;;;;;;;5067009;28;19939;-62
2021/07/17 07:16:55;;;;;;;;;;;;;;;;;;5067414;28;20302;-62
2021/07/17 07:19:21;;;;;;;;;;;;;;;;;;5068899;28;19920;-62
2021/07/17 07:21:48;;;;;;;;;;;;;;;;;;5063176;28;19913;-61
2021/07/17 07:24:13;;;;;;;;;;;;;;;;;;5070310;28;19908;-61
2021/07/17 07:26:39;;;;;;;;;;;;;;;;;;5066928;28;20023;-61
2021/07/17 07:29:05;;;;;;;;;;;;;;;;;;5067726;28;19942;-61
2021/07/17 07:31:31;;;;;;;;;;;;;;;;;;5071198;28;19922;-61
2021/07/17 07:33:57;;;;;;;;;;;;;;;;;;5067264;28;19923;-60
2021/07/17 07:36:23;;;;;;;;;;;;;;;;;;5068829;28;20007;-60
2021/07/17 07:38:49;;;;;;;;;;;;;;;;;;5067543;28;19912;-60
2021/07/17 07:41:15;;;;;;;;;;;;;;;;;;5068190;28;19913;-60
2021/07/17 07:43:45;;;;;;;;;;;;;;;;;;5068500;28;19952;-60
2021/07/17 07:46:11;;;;;;;;;;;;;;;;;;5052789;28;19912;-60
2021/07/17 07:48:37;;;;;;;;;;;;;;;;;;5072305;28;19916;-60
2021/07/17 07:51:03;;;;;;;;;;;;;;;;;;5068398;28;20000;-61
2021/07/17 07:53:28;;;;;;;;;;;;;;;;;;5068458;28;19928;-61
2021/07/17 07:55:54;;;;;;;;;;;;;;;;;;5068373;28;19912;-62
2021/07/17 07:58:20;;;;;;;;;;;;;;;;;;5068464;28;19913;-61
2021/07/17 08:00:46;;;;;;;;;;;;;;;;;;5070772;28;19915;-62
2021/07/17 08:03:12;;;;;;;;;;;;;;;;;;5058881;28;20406;-62
2021/07/17 08:05:38;;;;;;;;;;;;;;;;;;5071813;28;19912;-62
2021/07/17 08:08:04;;;;;;;;;;;;;;;;;;5072080;28;19913;-63
2021/07/17 08:10:30;;;;;;;;;;;;;;;;;;5071499;28;19917;-63
2021/07/17 08:12:56;;;;;;;;;;;;;;;;;;5072929;28;19931;-63
2021/07/17 08:15:22;;;;;;;;;;;;;;;;;;5070988;28;19925;-63
2021/07/17 08:17:47;;;;;;;;;;;;;;;;;;5071746;28;19954;-62
2021/07/17 08:20:13;;;;;;;;;;;;;;;;;;5072095;28;19958;-62
2021/07/17 08:22:39;;;;;;;;;;;;;;;;;;5071641;28;20417;-63
2021/07/17 08:25:05;;;;;;;;;;;;;;;;;;5072121;28;20380;-63
2021/07/17 08:27:31;;;;;;;;;;;;;;;;;;5071846;28;20359;-62
2021/07/17 08:29:57;;;;;;;;;;;;;;;;;;5055677;28;19915;-63
2021/07/17 08:32:23;;;;;;;;;;;;;;;;;;5071456;28;20121;-63
2021/07/17 08:34:51;;;;;;;;;;;;;;;;;;5070722;28;19969;-63
2021/07/17 08:37:17;;;;;;;;;;;;;;;;;;5071240;28;19913;-63
2021/07/17 08:39:43;;;;;;;;;;;;;;;;;;5074495;28;20387;-63
2021/07/17 08:42:09;;;;;;;;;;;;;;;;;;5072324;28;20356;-63
2021/07/17 08:44:34;;;;;;;;;;;;;;;;;;5071528;28;19908;-63
2021/07/17 08:47:00;;;;;;;;;;;;;;;;;;5071908;28;19916;-63
2021/07/17 08:49:26;;;;;;;;;;;;;;;;;;5071416;28;20398;-63
2021/07/17 08:51:52;;;;;;;;;;;;;;;;;;5073521;28;19917;-63
2021/07/17 08:54:18;;;;;;;;;;;;;;;;;;5073027;28;19967;-63
2021/07/17 08:56:44;;;;;;;;;;;;;;;;;;5071574;28;19951;-63
2021/07/17 08:59:10;;;;;;;;;;;;;;;;;;5071626;28;19935;-63
2021/07/17 09:01:36;;;;;;;;;;;;;;;;;;5071421;28;19962;-62
2021/07/17 09:04:04;;;;;;;;;;;;;;;;;;5071813;28;19914;-62
2021/07/17 09:06:30;;;;;;;;;;;;;;;;;;5074362;28;19954;-62
2021/07/17 09:08:56;;;;;;;;;;;;;;;;;;5071243;28;19912;-62
2021/07/17 09:11:22;;;;;;;;;;;;;;;;;;5070912;28;19955;-62
2021/07/17 09:13:47;;;;;;;;;;;;;;;;;;5069897;28;19928;-62
2021/07/17 09:16:14;;;;;;;;;;;;;;;;;;5071167;28;20368;-62
2021/07/17 09:18:40;;;;;;;;;;;;;;;;;;5074399;28;19955;-62
2021/07/17 09:21:06;;;;;;;;;;;;;;;;;;5072863;28;19913;-62
2021/07/17 09:23:32;;;;;;;;;;;;;;;;;;5071036;28;19912;-62
2021/07/17 09:26:01;;;;;;;;;;;;;;;;;;5071188;28;20376;-62
2021/07/17 09:28:27;;;;;;;;;;;;;;;;;;5070669;28;19913;-62
2021/07/17 09:30:53;;;;;;;;;;;;;;;;;;5073454;28;19931;-62
2021/07/17 09:33:18;;;;;;;;;;;;;;;;;;5071632;28;20395;-62
2021/07/17 09:35:44;;;;;;;;;;;;;;;;;;5070948;28;19920;-62
2021/07/17 09:38:10;;;;;;;;;;;;;;;;;;5070708;28;20435;-62
2021/07/17 09:40:36;;;;;;;;;;;;;;;;;;5070460;28;20003;-62
2021/07/17 09:43:02;;;;;;;;;;;;;;;;;;5071318;28;19921;-62
2021/07/17 09:45:28;;;;;;;;;;;;;;;;;;5073366;28;19913;-62
2021/07/17 09:47:54;;;;;;;;;;;;;;;;;;5070260;28;20475;-62
2021/07/17 09:50:20;;;;;;;;;;;;;;;;;;5070289;28;19919;-62
2021/07/17 09:52:45;;;;;;;;;;;;;;;;;;5070551;28;19935;-62
2021/07/17 09:55:12;;;;;;;;;;;;;;;;;;5070266;28;19924;-62
2021/07/17 09:57:38;;;;;;;;;;;;;;;;;;5073850;28;20375;-62
2021/07/17 10:00:04;;;;;;;;;;;;;;;;;;5070304;28;19920;-62
2021/07/17 10:02:30;;;;;;;;;;;;;;;;;;5069911;28;19912;-62
2021/07/17 10:04:55;;;;;;;;;;;;;;;;;;5070060;28;19916;-62
2021/07/17 10:07:21;;;;;;;;;;;;;;;;;;5070508;28;19917;-62
2021/07/17 10:09:47;;;;;;;;;;;;;;;;;;5072138;28;19916;-62
2021/07/17 10:12:13;;;;;;;;;;;;;;;;;;5071028;28;20391;-62
2021/07/17 10:14:39;;;;;;;;;;;;;;;;;;5069893;28;19920;-62
2021/07/17 10:17:05;;;;;;;;;;;;;;;;;;5069846;28;19913;-62
2021/07/17 10:19:31;;;;;;;;;;;;;;;;;;5070086;28;19978;-62
2021/07/17 10:21:57;;;;;;;;;;;;;;;;;;5071363;28;19909;-62
2021/07/17 10:24:23;;;;;;;;;;;;;;;;;;5071339;28;19909;-62
2021/07/17 10:26:49;;;;;;;;;;;;;;;;;;5069424;28;19916;-62
2021/07/17 10:29:16;;;;;;;;;;;;;;;;;;5056293;28;19919;-62
2021/07/17 10:31:42;;;;;;;;;;;;;;;;;;5068845;28;19924;-62
2021/07/17 10:34:08;;;;;;;;;;;;;;;;;;5053761;28;19920;-62
2021/07/17 10:36:34;;;;;;;;;;;;;;;;;;5072868;28;19909;-62
2021/07/17 10:38:59;;;;;;;;;;;;;;;;;;5069583;28;20375;-62
2021/07/17 10:41:25;;;;;;;;;;;;;;;;;;5069135;28;19913;-62
2021/07/17 10:43:51;;;;;;;;;;;;;;;;;;5069418;28;20371;-62
2021/07/17 10:46:17;;;;;;;;;;;;;;;;;;5069074;28;20272;-62
2021/07/17 10:48:43;;;;;;;;;;;;;;;;;;5072450;28;19916;-62
2021/07/17 10:51:09;;;;;;;;;;;;;;;;;;5069969;28;20298;-62
2021/07/17 10:53:35;;;;;;;;;;;;;;;;;;5069240;28;19927;-62
2021/07/17 10:56:01;;;;;;;;;;;;;;;;;;5069252;28;20003;-62
2021/07/17 10:58:27;;;;;;;;;;;;;;;;;;5069170;28;19913;-62
2021/07/17 11:00:53;;;;;;;;;;;;;;;;;;5070704;28;19913;-62
2021/07/17 11:03:18;;;;;;;;;;;;;;;;;;5069907;28;19959;-62
2021/07/17 11:05:44;;;;;;;;;;;;;;;;;;5068964;28;20042;-62
2021/07/17 11:08:10;;;;;;;;;;;;;;;;;;5068653;28;19966;-63
2021/07/17 11:10:36;;;;;;;;;;;;;;;;;;5069168;28;19917;-62
2021/07/17 11:13:02;;;;;;;;;;;;;;;;;;5069969;28;19924;-62
2021/07/17 11:15:28;;;;;;;;;;;;;;;;;;5070994;28;19920;-62
2021/07/17 11:17:54;;;;;;;;;;;;;;;;;;5068957;28;19913;-62
2021/07/17 11:20:20;;;;;;;;;;;;;;;;;;5068923;28;19912;-62
2021/07/17 11:22:46;;;;;;;;;;;;;;;;;;5068413;28;19912;-62
2021/07/17 11:25:12;;;;;;;;;;;;;;;;;;5068788;28;20022;-62
2021/07/17 11:27:37;;;;;;;;;;;;;;;;;;5072309;28;19915;-61
2021/07/17 11:30:03;;;;;;;;;;;;;;;;;;5068651;28;20279;-62
2021/07/17 11:32:29;;;;;;;;;;;;;;;;;;5068996;28;19966;-62
2021/07/17 11:34:55;;;;;;;;;;;;;;;;;;5068410;28;19924;-61
2021/07/17 11:37:21;;;;;;;;;;;;;;;;;;5067985;28;19912;-62
2021/07/17 11:39:48;;;;;;;;;;;;;;;;;;5071158;28;19946;-63
2021/07/17 11:42:14;;;;;;;;;;;;;;;;;;5070055;28;20014;-63
2021/07/17 11:44:40;;;;;;;;;;;;;;;;;;5067666;28;20360;-62
2021/07/17 11:47:06;;;;;;;;;;;;;;;;;;5068722;28;19999;-62
2021/07/17 11:49:32;;;;;;;;;;;;;;;;;;5068733;28;19999;-62
2021/07/17 11:51:58;;;;;;;;;;;;;;;;;;5070558;28;20245;-61
2021/07/17 11:54:24;;;;;;;;;;;;;;;;;;5070328;28;19970;-61
2021/07/17 11:56:50;;;;;;;;;;;;;;;;;;5068522;28;19916;-63
2021/07/17 11:59:16;;;;;;;;;;;;;;;;;;5067867;28;19920;-61
2021/07/17 12:01:41;;;;;;;;;;;;;;;;;;5068736;28;20027;-62
2021/07/17 12:04:07;;;;;;;;;;;;;;;;;;5069228;28;20373;-62
2021/07/17 12:06:33;;;;;;;;;;;;;;;;;;5071307;28;19955;-61
2021/07/17 12:08:59;;;;;;;;;;;;;;;;;;5068249;28;20500;-62
2021/07/17 12:11:25;;;;;;;;;;;;;;;;;;5068447;28;20003;-63
2021/07/17 12:13:51;;;;;;;;;;;;;;;;;;5068491;28;19921;-62
2021/07/17 12:16:17;;;;;;;;;;;;;;;;;;5067783;28;19917;-62
2021/07/17 12:18:42;;;;;;;;;;;;;;;;;;5071381;28;20046;-62
2021/07/17 12:21:08;;;;;;;;;;;;;;;;;;5069249;28;20364;-62
2021/07/17 12:23:36;;;;;;;;;;;;;;;;;;5068159;28;19919;-61
2021/07/17 12:26:02;;;;;;;;;;;;;;;;;;5067823;28;19917;-62
2021/07/17 12:28:35;;;;;;;;;;;;;;;;;;5068319;28;19958;-62
2021/07/17 12:31:01;;;;;;;;;;;;;;;;;;5069314;28;19920;-62
2021/07/17 12:33:27;;;;;;;;;;;;;;;;;;5070268;28;19920;-62
2021/07/17 12:35:53;;;;;;;;;;;;;;;;;;5068223;28;20374;-62
2021/07/17 12:38:19;;;;;;;;;;;;;;;;;;5068405;28;19916;-70
2021/07/17 12:40:45;;;;;;;;;;;;;;;;;;5068059;28;19916;-69
2021/07/17 12:43:11;;;;;;;;;;;;;;;;;;5067602;28;20342;-70
2021/07/17 12:45:37;;;;;;;;;;;;;;;;;;5071784;28;19909;-69
2021/07/17 12:48:02;;;;;;;;;;;;;;;;;;5068203;28;20436;-70
2021/07/17 12:50:28;;;;;;;;;;;;;;;;;;5057267;28;19912;-70
2021/07/17 12:52:54;;;;;;;;;;;;;;;;;;5071274;28;19916;-70
2021/07/17 12:55:20;;;;;;;;;;;;;;;;;;5071578;28;20019;-70
2021/07/17 12:57:46;;;;;;;;;;;;;;;;;;5074084;28;19908;-69
2021/07/17 13:00:12;;;;;;;;;;;;;;;;;;5073994;28;19913;-70
2021/07/17 13:02:38;;;;;;;;;;;;;;;;;;5071289;28;19912;-69
2021/07/17 13:05:04;;;;;;;;;;;;;;;;;;5071138;28;20343;-69
2021/07/17 13:07:30;;;;;;;;;;;;;;;;;;5071089;28;19912;-70
2021/07/17 13:09:56;;;;;;;;;;;;;;;;;;5073220;28;20311;-69
2021/07/17 13:12:22;;;;;;;;;;;;;;;;;;5072906;28;19947;-70
2021/07/17 13:14:48;;;;;;;;;;;;;;;;;;5071078;28;19920;-69
2021/07/17 13:17:14;;;;;;;;;;;;;;;;;;5070664;28;19913;-70
2021/07/17 13:19:40;;;;;;;;;;;;;;;;;;5070849;28;19923;-70
2021/07/17 13:22:06;;;;;;;;;;;;;;;;;;5072020;28;19967;-70
2021/07/17 13:24:31;;;;;;;;;;;;;;;;;;5073872;28;20380;-69
2021/07/17 13:26:58;;;;;;;;;;;;;;;;;;5070869;28;20056;-69
2021/07/17 13:29:23;;;;;;;;;;;;;;;;;;5070175;28;19917;-70
2021/07/17 13:31:49;;;;;;;;;;;;;;;;;;5070853;28;19919;-69
2021/07/17 13:34:15;;;;;;;;;;;;;;;;;;5070822;28;19929;-69
2021/07/17 13:36:41;;;;;;;;;;;;;;;;;;5074054;28;19995;-69
2021/07/17 13:39:07;;;;;;;;;;;;;;;;;;5070685;28;19913;-70
2021/07/17 13:41:33;;;;;;;;;;;;;;;;;;5070109;28;19913;-70
2021/07/17 13:43:59;;;;;;;;;;;;;;;;;;5070592;28;20459;-70
2021/07/17 13:46:25;;;;;;;;;;;;;;;;;;5070741;28;19920;-69
2021/07/17 13:48:51;;;;;;;;;;;;;;;;;;5072439;28;20269;-69
2021/07/17 13:51:17;;;;;;;;;;;;;;;;;;5071722;28;20360;-69
2021/07/17 13:53:43;;;;;;;;;;;;;;;;;;5069637;28;20019;-69
2021/07/17 13:56:09;;;;;;;;;;;;;;;;;;5070485;28;19959;-69
2021/07/17 13:58:35;;;;;;;;;;;;;;;;;;5070121;28;20371;-69
2021/07/17 14:01:02;;;;;;;;;;;;;;;;;;5071295;28;20662;-69
2021/07/17 14:03:31;;;;;;;;;;;;;;;;;;5072819;28;19908;-69
2021/07/17 14:05:58;;;;;;;;;;;;;;;;;;5070209;28;19963;-69
2021/07/17 14:08:23;;;;;;;;;;;;;;;;;;5069457;28;19912;-70
2021/07/17 14:10:49;;;;;;;;;;;;;;;;;;5070178;28;19918;-69
2021/07/17 14:13:15;;;;;;;;;;;;;;;;;;5070010;28;19928;-69
2021/07/17 14:15:41;;;;;;;;;;;;;;;;;;5073406;28;19951;-69
2021/07/17 14:18:07;;;;;;;;;;;;;;;;;;5070320;28;19908;-69
2021/07/17 14:20:33;;;;;;;;;;;;;;;;;;5069469;28;19912;-69
2021/07/17 14:22:59;;;;;;;;;;;;;;;;;;5069372;28;19916;-70
2021/07/17 14:25:24;;;;;;;;;;;;;;;;;;5069960;28;19913;-69
2021/07/17 14:27:50;;;;;;;;;;;;;;;;;;5071918;28;19999;-69
2021/07/17 14:30:16;;;;;;;;;;;;;;;;;;5070729;28;19909;-70
2021/07/17 14:32:42;;;;;;;;;;;;;;;;;;5056362;28;19923;-69
2021/07/17 14:35:08;;;;;;;;;;;;;;;;;;5069534;28;19924;-69
2021/07/17 14:37:34;;;;;;;;;;;;;;;;;;5069677;28;19912;-69
2021/07/17 14:40:00;;;;;;;;;;;;;;;;;;5070401;28;19974;-70
2021/07/17 14:42:26;;;;;;;;;;;;;;;;;;5071944;28;19912;-70
2021/07/17 14:44:52;;;;;;;;;;;;;;;;;;5069454;28;20314;-70
2021/07/17 14:47:18;;;;;;;;;;;;;;;;;;5068932;28;19916;-69
2021/07/17 14:49:43;;;;;;;;;;;;;;;;;;5069366;28;20328;-70
2021/07/17 14:52:09;;;;;;;;;;;;;;;;;;5069434;28;19913;-69
2021/07/17 14:54:35;;;;;;;;;;;;;;;;;;5072444;28;20011;-70
2021/07/17 14:57:01;;;;;;;;;;;;;;;;;;5069180;28;19916;-70
2021/07/17 14:59:27;;;;;;;;;;;;;;;;;;5055725;28;19919;-69
2021/07/17 15:01:53;;;;;;;;;;;;;;;;;;5069243;28;19912;-70
2021/07/17 15:04:19;;;;;;;;;;;;;;;;;;5069065;28;19920;-70
2021/07/17 15:06:45;;;;;;;;;;;;;;;;;;5071233;28;19908;-69
2021/07/17 15:09:12;;;;;;;;;;;;;;;;;;5069755;28;20339;-69
2021/07/17 15:11:38;;;;;;;;;;;;;;;;;;5067955;28;19912;-69
2021/07/17 15:14:04;;;;;;;;;;;;;;;;;;5068877;28;19966;-70
2021/07/17 15:16:30;;;;;;;;;;;;;;;;;;5068742;28;19913;-69
2021/07/17 15:18:56;;;;;;;;;;;;;;;;;;5071150;28;20364;-69
2021/07/17 15:21:21;;;;;;;;;;;;;;;;;;5069990;28;19928;-71
2021/07/17 15:23:47;;;;;;;;;;;;;;;;;;5068191;28;19912;-69
2021/07/17 15:26:13;;;;;;;;;;;;;;;;;;5068978;28;19913;-69
2021/07/17 15:28:40;;;;;;;;;;;;;;;;;;5069025;28;20382;-69
2021/07/17 15:31:06;;;;;;;;;;;;;;;;;;5068947;28;20568;-69
2021/07/17 15:33:32;;;;;;;;;;;;;;;;;;5071790;28;19913;-69
2021/07/17 15:35:57;;;;;;;;;;;;;;;;;;5055315;28;19909;-70
2021/07/17 15:38:23;;;;;;;;;;;;;;;;;;5068325;28;19920;-70
2021/07/17 15:40:49;;;;;;;;;;;;;;;;;;5068705;28;19954;-70
2021/07/17 15:43:15;;;;;;;;;;;;;;;;;;5068828;28;19925;-70
2021/07/17 15:45:41;;;;;;;;;;;;;;;;;;5071660;28;19909;-70
2021/07/17 15:48:07;;;;;;;;;;;;;;;;;;5069032;28;19938;-70
2021/07/17 15:50:33;;;;;;;;;;;;;;;;;;5068131;28;19909;-70
2021/07/17 15:52:59;;;;;;;;;;;;;;;;;;5068661;28;19966;-70
2021/07/17 15:55:25;;;;;;;;;;;;;;;;;;5068721;28;19917;-70
2021/07/17 15:57:51;;;;;;;;;;;;;;;;;;5070660;28;20023;-70
2021/07/17 16:00:17;;;;;;;;;;;;;;;;;;5069634;28;20347;-70
2021/07/17 16:02:43;;;;;;;;;;;;;;;;;;5068146;28;19919;-70
2021/07/17 16:05:09;;;;;;;;;;;;;;;;;;5068219;28;19912;-70
2021/07/17 16:07:34;;;;;;;;;;;;;;;;;;5068262;28;19909;-70
2021/07/17 16:10:00;;;;;;;;;;;;;;;;;;5069986;28;20320;-70
2021/07/17 16:12:26;;;;;;;;;;;;;;;;;;5070115;28;19921;-70
2021/07/17 16:14:52;;;;;;;;;;;;;;;;;;5068177;28;19935;-70
2021/07/17 16:17:18;;;;;;;;;;;;;;;;;;5067977;28;19913;-70
2021/07/17 16:19:44;;;;;;;;;;;;;;;;;;5067983;28;19918;-70
2021/07/17 16:22:10;;;;;;;;;;;;;;;;;;5051070;28;19919;-70
2021/07/17 16:24:36;;;;;;;;;;;;;;;;;;5060841;28;19908;-70
2021/07/17 16:27:02;;;;;;;;;;;;;;;;;;5072342;28;19923;-70
2021/07/17 16:29:27;;;;;;;;;;;;;;;;;;5058801;28;19913;-70
2021/07/17 16:31:54;;;;;;;;;;;;;;;;;;5071313;28;19913;-70
2021/07/17 16:34:20;;;;;;;;;;;;;;;;;;5071750;28;19921;-70
2021/07/17 16:36:48;;;;;;;;;;;;;;;;;;5074744;28;19909;-70